createdAt,value
2023-04-14T00:00:27.954Z,99743.93
2023-04-14T00:03:10.191Z,99748.59
2023-04-14T00:05:39.473Z,99747.91
2023-04-14T00:08:12.130Z,99749.03
2023-04-14T00:10:42.689Z,99749.75
2023-04-14T00:13:10.970Z,99750.37
2023-04-14T00:15:41.460Z,99748.73
2023-04-14T00:18:12.322Z,99748.46
2023-04-14T00:20:40.496Z,99746.63
2023-04-14T00:23:11.527Z,99746.73
2023-04-14T00:25:40.117Z,99747.83
2023-04-14T00:28:08.808Z,99746.74
2023-04-14T00:30:40.053Z,99748.20
2023-04-14T00:33:09.805Z,99748.77
2023-04-14T00:35:37.930Z,99746.79
2023-04-14T00:38:06.652Z,99740.20
2023-04-14T00:40:35.117Z,99741.33
2023-04-14T00:43:04.094Z,99744.10
2023-04-14T00:45:32.434Z,99746.69
2023-04-14T00:48:00.662Z,99748.02
2023-04-14T00:50:29.017Z,99748.73
2023-04-14T00:52:59.046Z,99749.15
2023-04-14T00:55:28.035Z,99749.08
2023-04-14T00:57:56.520Z,99748.80
2023-04-14T01:00:25.615Z,99752.69
2023-04-14T01:02:55.078Z,99753.44
2023-04-14T01:05:24.245Z,99752.48
2023-04-14T01:07:54.949Z,99755.33
2023-04-14T01:10:24.510Z,99756.96
2023-04-14T01:13:16.928Z,99762.82
2023-04-14T01:15:53.082Z,99764.92
2023-04-14T01:19:00.912Z,99765.42
2023-04-14T01:21:33.336Z,99766.77
2023-04-14T01:24:16.652Z,99763.89
2023-04-14T01:26:44.806Z,99769.33
2023-04-14T01:29:20.054Z,99765.74
2023-04-14T01:31:55.638Z,99764.84
2023-04-14T01:34:33.663Z,99763.99
2023-04-14T01:37:07.673Z,99759.83
2023-04-14T01:39:38.664Z,99756.73
2023-04-14T01:42:13.315Z,99763.85
2023-04-14T01:44:41.794Z,99764.65
2023-04-14T01:47:13.041Z,99768.91
2023-04-14T01:49:41.474Z,99770.09
2023-04-14T01:52:11.096Z,99771.38
2023-04-14T01:54:41.763Z,99767.52
2023-04-14T01:57:11.375Z,99765.61
2023-04-14T01:59:41.906Z,99766.74
2023-04-14T02:02:11.591Z,99770.65
2023-04-14T02:04:39.941Z,99765.27
2023-04-14T02:07:08.681Z,99769.45
2023-04-14T02:09:37.272Z,99769.91
2023-04-14T02:12:05.644Z,99768.27
2023-04-14T02:14:34.032Z,99769.57
2023-04-14T02:17:03.184Z,99771.04
2023-04-14T02:19:32.000Z,99777.42
2023-04-14T02:22:03.148Z,99781.14
2023-04-14T02:24:32.376Z,99783.16
2023-04-14T02:27:07.505Z,99785.52
2023-04-14T02:29:35.836Z,99787.85
2023-04-14T02:32:05.769Z,99790.25
2023-04-14T02:34:48.292Z,99791.14
2023-04-14T02:37:18.628Z,99800.75
2023-04-14T02:39:52.303Z,99798.82
2023-04-14T02:42:21.023Z,99802.77
2023-04-14T02:44:51.849Z,99801.98
2023-04-14T02:47:33.190Z,99803.35
2023-04-14T02:50:02.551Z,99808.92
2023-04-14T02:52:31.728Z,99807.98
2023-04-14T02:55:00.731Z,99813.96
2023-04-14T02:57:29.829Z,99819.54
2023-04-14T02:59:58.816Z,99819.91
2023-04-14T03:02:29.983Z,99820.63
2023-04-14T03:05:05.542Z,99825.42
2023-04-14T03:07:51.101Z,99823.18
2023-04-14T03:10:20.210Z,99825.91
2023-04-14T03:12:48.871Z,99828.35
2023-04-14T03:15:17.659Z,99831.31
2023-04-14T03:17:48.760Z,99834.28
2023-04-14T03:20:20.366Z,99836.73
2023-04-14T03:23:01.227Z,99839.00
2023-04-14T03:25:37.285Z,99841.70
2023-04-14T03:28:09.971Z,99846.03
2023-04-14T03:30:41.809Z,99844.48
2023-04-14T03:33:14.819Z,99844.77
2023-04-14T03:35:43.931Z,99842.98
2023-04-14T03:38:12.203Z,99848.55
2023-04-14T03:40:42.425Z,99846.05
2023-04-14T03:43:13.039Z,99846.86
2023-04-14T03:45:47.670Z,99845.94
2023-04-14T03:48:20.042Z,99849.08
2023-04-14T03:50:51.917Z,99847.48
2023-04-14T03:53:21.376Z,99849.08
2023-04-14T03:55:51.652Z,99857.61
2023-04-14T03:58:24.514Z,99858.02
2023-04-14T04:00:53.199Z,99861.33
2023-04-14T04:03:22.070Z,99860.65
2023-04-14T04:05:50.678Z,99866.25
2023-04-14T04:08:19.263Z,99870.32
2023-04-14T04:10:47.841Z,99874.80
2023-04-14T04:13:19.365Z,99878.07
2023-04-14T04:15:48.120Z,99881.45
2023-04-14T04:18:17.494Z,99879.84
2023-04-14T04:20:46.378Z,99881.54
2023-04-14T04:23:17.678Z,99879.40
2023-04-14T04:25:46.010Z,99878.48
2023-04-14T04:28:26.686Z,99879.56
2023-04-14T04:30:56.661Z,99877.35
2023-04-14T04:33:26.670Z,99881.95
2023-04-14T04:35:55.190Z,99886.60
2023-04-14T04:38:24.774Z,99885.98
2023-04-14T04:40:53.437Z,99890.77
2023-04-14T04:43:29.952Z,99894.05
2023-04-14T04:45:58.785Z,99894.16
2023-04-14T04:48:27.837Z,99897.26
2023-04-14T04:50:56.381Z,99898.07
2023-04-14T04:53:24.682Z,99902.75
2023-04-14T04:55:55.900Z,99904.83
2023-04-14T04:58:24.321Z,99909.09
2023-04-14T05:00:54.563Z,99910.50
2023-04-14T05:03:24.498Z,99909.41
2023-04-14T05:05:52.719Z,99913.05
2023-04-14T05:08:21.734Z,99912.88
2023-04-14T05:10:51.747Z,99915.08
2023-04-14T05:13:22.830Z,99917.90
2023-04-14T05:15:52.178Z,99920.84
2023-04-14T05:18:21.610Z,99920.46
2023-04-14T05:20:49.868Z,99922.26
2023-04-14T05:23:18.458Z,99929.36
2023-04-14T05:25:51.440Z,99935.37
2023-04-14T05:28:23.718Z,99937.48
2023-04-14T05:30:52.144Z,99939.17
2023-04-14T05:33:22.094Z,99937.70
2023-04-14T05:35:53.828Z,99941.46
2023-04-14T05:38:22.138Z,99941.39
2023-04-14T05:40:51.199Z,99941.02
2023-04-14T05:43:20.040Z,99937.16
2023-04-14T05:45:48.321Z,99937.22
2023-04-14T05:48:17.622Z,99937.84
2023-04-14T05:50:46.870Z,99935.55
2023-04-14T05:53:15.495Z,99939.29
2023-04-14T05:55:43.903Z,99942.58
2023-04-14T05:58:12.786Z,99945.70
2023-04-14T06:00:43.259Z,99953.48
2023-04-14T06:03:31.864Z,99958.45
2023-04-14T06:06:00.346Z,99961.98
2023-04-14T06:08:30.572Z,99964.63
2023-04-14T06:10:59.368Z,99966.38
2023-04-14T06:13:31.162Z,99969.40
2023-04-14T06:16:01.083Z,99970.34
2023-04-14T06:18:29.604Z,99968.10
2023-04-14T06:20:57.785Z,99966.88
2023-04-14T06:23:26.873Z,99971.86
2023-04-14T06:25:57.329Z,99972.36
2023-04-14T06:28:26.492Z,99973.96
2023-04-14T06:30:54.777Z,99973.95
2023-04-14T06:33:22.955Z,99970.48
2023-04-14T06:35:51.784Z,99974.20
2023-04-14T06:38:20.221Z,99978.39
2023-04-14T06:40:50.223Z,99980.92
2023-04-14T06:43:20.094Z,99983.84
2023-04-14T06:45:51.066Z,99984.02
2023-04-14T06:48:19.482Z,99985.06
2023-04-14T06:50:56.194Z,99988.33
2023-04-14T06:53:26.292Z,99989.39
2023-04-14T06:56:00.856Z,99989.39
2023-04-14T06:58:31.202Z,99991.02
2023-04-14T07:01:01.696Z,99993.71
2023-04-14T07:03:31.382Z,99995.08
2023-04-14T07:06:11.867Z,100004.25
2023-04-14T07:08:40.833Z,100005.81
2023-04-14T07:11:10.543Z,100004.48
2023-04-14T07:13:39.629Z,100006.00
2023-04-14T07:16:10.217Z,100008.77
2023-04-14T07:18:39.044Z,100012.22
2023-04-14T07:21:07.232Z,100016.54
2023-04-14T07:23:40.806Z,100012.55
2023-04-14T07:26:08.916Z,100014.86
2023-04-14T07:28:37.317Z,100016.21
2023-04-14T07:31:10.697Z,100015.75
2023-04-14T07:33:40.474Z,100016.70
2023-04-14T07:36:09.491Z,100018.44
2023-04-14T07:38:37.786Z,100022.34
2023-04-14T07:41:06.964Z,100016.94
2023-04-14T07:43:35.956Z,100019.52
2023-04-14T07:46:05.735Z,100018.82
2023-04-14T07:48:37.611Z,100016.95
2023-04-14T07:51:09.271Z,100016.83
2023-04-14T07:53:43.671Z,100012.58
2023-04-14T07:56:12.580Z,100013.11
2023-04-14T07:58:42.802Z,100014.52
2023-04-14T08:01:11.382Z,100017.08
2023-04-14T08:03:42.752Z,100019.19
2023-04-14T08:06:12.953Z,100017.90
2023-04-14T08:08:43.531Z,100021.90
2023-04-14T08:11:12.315Z,100027.36
2023-04-14T08:13:40.890Z,100030.11
2023-04-14T08:16:09.514Z,100030.98
2023-04-14T08:18:39.863Z,100032.53
2023-04-14T08:21:08.140Z,100035.59
2023-04-14T08:23:39.472Z,100039.58
2023-04-14T08:26:08.261Z,100040.05
2023-04-14T08:28:37.275Z,100043.67
2023-04-14T08:31:05.903Z,100048.67
2023-04-14T08:33:34.770Z,100048.39
2023-04-14T08:36:03.428Z,100049.27
2023-04-14T08:38:36.847Z,100047.86
2023-04-14T08:41:05.920Z,100044.95
2023-04-14T08:43:34.303Z,100040.15
2023-04-14T08:46:04.991Z,100035.64
2023-04-14T08:48:33.729Z,100030.48
2023-04-14T08:51:02.505Z,100027.89
2023-04-14T08:53:32.229Z,100028.58
2023-04-14T08:56:03.317Z,100028.86
2023-04-14T08:58:31.650Z,100029.30
2023-04-14T09:01:01.926Z,100030.23
2023-04-14T09:03:31.635Z,100027.67
2023-04-14T09:05:59.977Z,100029.77
2023-04-14T09:08:39.330Z,100034.27
2023-04-14T09:11:08.452Z,100035.18
2023-04-14T09:13:36.769Z,100037.11
2023-04-14T09:16:05.420Z,100039.73
2023-04-14T09:18:34.774Z,100044.98
2023-04-14T09:21:31.187Z,100043.20
2023-04-14T09:23:52.928Z,100046.66
2023-04-14T09:26:20.993Z,100050.96
2023-04-14T09:28:49.277Z,100053.30
2023-04-14T09:31:19.893Z,100054.79
2023-04-14T09:33:50.977Z,100056.62
2023-04-14T09:36:23.545Z,100056.00
2023-04-14T09:38:52.743Z,100058.60
2023-04-14T09:41:22.899Z,100059.15
2023-04-14T09:43:52.798Z,100061.15
2023-04-14T09:46:22.010Z,100065.69
2023-04-14T09:48:50.173Z,100068.32
2023-04-14T09:51:21.997Z,100066.80
2023-04-14T09:53:52.931Z,100071.42
2023-04-14T09:56:26.776Z,100073.06
2023-04-14T09:59:02.345Z,100075.50
2023-04-14T10:01:33.960Z,100078.73
2023-04-14T10:04:04.162Z,100078.67
2023-04-14T10:06:32.397Z,100079.85
2023-04-14T10:09:01.664Z,100082.80
2023-04-14T10:11:33.079Z,100083.30
2023-04-14T10:14:04.322Z,100080.40
2023-04-14T10:16:34.118Z,100079.54
2023-04-14T10:19:03.693Z,100086.01
2023-04-14T10:21:36.691Z,100084.94
2023-04-14T10:24:05.221Z,100087.70
2023-04-14T10:26:34.857Z,100090.55
2023-04-14T10:29:03.502Z,100093.26
2023-04-14T10:31:37.024Z,100097.34
2023-04-14T10:34:12.352Z,100104.34
2023-04-14T10:36:41.591Z,100107.33
2023-04-14T10:39:11.887Z,100108.14
2023-04-14T10:41:43.126Z,100107.08
2023-04-14T10:44:37.731Z,100106.23
2023-04-14T10:47:07.884Z,100106.44
2023-04-14T10:51:10.901Z,100108.73
2023-04-14T10:53:47.794Z,100110.64
2023-04-14T10:56:16.258Z,100109.98
2023-04-14T10:58:54.512Z,100110.04
2023-04-14T11:01:24.384Z,100114.95
2023-04-14T11:03:54.570Z,100115.39
2023-04-14T11:06:47.808Z,100114.95
2023-04-14T11:09:32.709Z,100119.02
2023-04-14T11:12:25.022Z,100120.60
2023-04-14T11:15:03.946Z,100126.41
2023-04-14T11:17:37.800Z,100127.65
2023-04-14T11:20:19.653Z,100131.43
2023-04-14T11:22:54.222Z,100137.31
2023-04-14T11:25:24.519Z,100140.20
2023-04-14T11:27:53.641Z,100141.23
2023-04-14T11:30:23.293Z,100138.39
2023-04-14T11:32:57.423Z,100138.54
2023-04-14T11:35:29.176Z,100139.53
2023-04-14T11:38:00.157Z,100143.58
2023-04-14T11:40:28.698Z,100142.05
2023-04-14T11:42:59.152Z,100136.75
2023-04-14T11:45:31.096Z,100138.19
2023-04-14T11:48:02.062Z,100141.39
2023-04-14T11:50:32.625Z,100139.34
2023-04-14T11:53:00.831Z,100136.22
2023-04-14T11:55:30.282Z,100132.92
2023-04-14T11:57:59.326Z,100129.90
2023-04-14T12:00:28.138Z,100130.12
2023-04-14T12:02:57.700Z,100133.13
2023-04-14T12:05:31.308Z,100133.82
2023-04-14T12:09:58.547Z,100133.95
2023-04-14T12:10:56.312Z,100133.54
2023-04-14T12:13:24.742Z,100133.42
2023-04-14T12:15:54.405Z,100133.92
2023-04-14T12:18:23.088Z,100132.34
2023-04-14T12:20:54.073Z,100131.30
2023-04-14T12:23:22.311Z,100136.03
2023-04-14T12:25:52.775Z,100135.11
2023-04-14T12:28:25.801Z,100131.88
2023-04-14T12:30:56.821Z,100127.95
2023-04-14T12:33:26.654Z,100131.97
2023-04-14T12:36:04.926Z,100128.36
2023-04-14T12:38:33.646Z,100127.12
2023-04-14T12:41:02.406Z,100128.73
2023-04-14T12:43:35.581Z,100137.42
2023-04-14T12:46:04.413Z,100137.98
2023-04-14T12:48:41.144Z,100142.41
2023-04-14T12:51:13.597Z,100142.62
2023-04-14T12:53:42.824Z,100142.47
2023-04-14T12:56:12.255Z,100145.38
2023-04-14T12:58:43.072Z,100144.17
2023-04-14T13:01:11.757Z,100146.88
2023-04-14T13:03:52.237Z,100142.82
2023-04-14T13:06:22.941Z,100142.18
2023-04-14T13:08:52.627Z,100151.63
2023-04-14T13:11:21.775Z,100150.73
2023-04-14T13:13:55.144Z,100152.84
2023-04-14T13:16:26.376Z,100153.92
2023-04-14T13:18:55.815Z,100151.70
2023-04-14T13:21:27.356Z,100146.82
2023-04-14T13:23:55.661Z,100149.09
2023-04-14T13:26:23.735Z,100147.30
2023-04-14T13:28:51.982Z,100145.48
2023-04-14T13:31:20.903Z,100142.01
2023-04-14T13:33:49.154Z,100144.48
2023-04-14T13:36:17.534Z,100142.23
2023-04-14T13:38:47.388Z,100139.02
2023-04-14T13:41:15.859Z,100136.98
2023-04-14T13:43:44.236Z,100137.24
2023-04-14T13:46:12.963Z,100140.39
2023-04-14T13:48:43.660Z,100138.92
2023-04-14T13:51:12.832Z,100141.50
2023-04-14T13:53:40.801Z,100139.00
2023-04-14T13:56:10.413Z,100139.55
2023-04-14T13:58:38.621Z,100141.06
2023-04-14T14:01:11.336Z,100144.23
2023-04-14T14:03:45.260Z,100145.89
2023-04-14T14:06:14.678Z,100145.98
2023-04-14T14:08:43.164Z,100151.13
2023-04-14T14:11:16.082Z,100154.58
2023-04-14T14:13:44.835Z,100152.64
2023-04-14T14:16:14.505Z,100155.20
2023-04-14T14:18:47.525Z,100162.49
2023-04-14T14:21:17.543Z,100161.83
2023-04-14T14:23:45.931Z,100160.94
2023-04-14T14:26:14.225Z,100162.23
2023-04-14T14:28:45.248Z,100165.70
2023-04-14T14:31:14.513Z,100171.61
2023-04-14T14:33:43.644Z,100175.66
2023-04-14T14:36:11.917Z,100184.67
2023-04-14T14:38:40.418Z,100191.91
2023-04-14T14:41:08.856Z,100193.64
2023-04-14T14:43:37.677Z,100195.89
2023-04-14T14:46:10.059Z,100196.64
2023-04-14T14:48:40.906Z,100202.98
2023-04-14T14:51:08.998Z,100205.58
2023-04-14T14:53:39.118Z,100210.41
2023-04-14T14:56:07.930Z,100212.55
2023-04-14T14:58:36.277Z,100211.97
2023-04-14T15:01:06.101Z,100216.23
2023-04-14T15:03:36.167Z,100216.92
2023-04-14T15:06:04.924Z,100221.20
2023-04-14T15:08:33.293Z,100222.70
2023-04-14T15:11:01.366Z,100226.10
2023-04-14T15:13:32.751Z,100228.44
2023-04-14T15:16:01.017Z,100229.95
2023-04-14T15:18:35.560Z,100230.65
2023-04-14T15:21:04.973Z,100231.80
2023-04-14T15:23:37.141Z,100235.27
2023-04-14T15:26:14.232Z,100240.40
2023-04-14T15:28:42.603Z,100242.02
2023-04-14T15:31:11.180Z,100243.49
2023-04-14T15:33:39.980Z,100250.41
2023-04-14T15:36:09.066Z,100252.76
2023-04-14T15:38:38.761Z,100257.62
2023-04-14T15:41:06.831Z,100263.14
2023-04-14T15:43:36.587Z,100263.21
2023-04-14T15:46:05.037Z,100262.23
2023-04-14T15:48:33.682Z,100261.73
2023-04-14T15:51:05.114Z,100261.11
2023-04-14T15:53:33.585Z,100265.98
2023-04-14T15:56:02.151Z,100272.55
2023-04-14T15:58:31.958Z,100277.63
2023-04-14T16:00:59.989Z,100284.08
2023-04-14T16:03:28.776Z,100281.61
2023-04-14T16:06:01.973Z,100282.20
2023-04-14T16:08:30.562Z,100290.46
2023-04-14T16:10:59.435Z,100292.71
2023-04-14T16:13:29.513Z,100297.76
2023-04-14T16:15:58.713Z,100302.98
2023-04-14T16:18:26.859Z,100309.80
2023-04-14T16:20:55.473Z,100308.89
2023-04-14T16:23:24.680Z,100307.78
2023-04-14T16:25:52.851Z,100311.73
2023-04-14T16:28:27.179Z,100310.22
2023-04-14T16:30:59.363Z,100310.13
2023-04-14T16:33:28.750Z,100315.38
2023-04-14T16:35:59.990Z,100315.03
2023-04-14T16:38:28.499Z,100314.28
2023-04-14T16:40:57.626Z,100315.83
2023-04-14T16:43:27.694Z,100322.92
2023-04-14T16:46:03.267Z,100329.61
2023-04-14T16:48:32.854Z,100333.12
2023-04-14T16:51:08.372Z,100332.71
2023-04-14T16:53:37.898Z,100336.74
2023-04-14T16:56:07.664Z,100334.38
2023-04-14T16:58:45.602Z,100337.83
2023-04-14T17:01:15.642Z,100344.19
2023-04-14T17:03:44.305Z,100343.73
2023-04-14T17:06:12.773Z,100350.27
2023-04-14T17:08:41.865Z,100348.02
2023-04-14T17:11:10.023Z,100347.91
2023-04-14T17:13:38.733Z,100350.25
2023-04-14T17:16:17.365Z,100356.12
2023-04-14T17:18:46.456Z,100358.48
2023-04-14T17:21:14.772Z,100360.33
2023-04-14T17:23:55.423Z,100364.03
2023-04-14T17:26:26.254Z,100366.02
2023-04-14T17:28:54.400Z,100366.88
2023-04-14T17:31:24.852Z,100370.17
2023-04-14T17:33:53.611Z,100368.98
2023-04-14T17:39:41.033Z,100377.89
2023-04-14T17:42:09.928Z,100385.48
2023-04-14T17:44:47.352Z,100388.25
2023-04-14T17:47:41.725Z,100388.13
2023-04-14T17:56:52.555Z,100389.05
2023-04-14T17:59:31.416Z,100391.52
2023-04-14T18:03:19.654Z,100392.08
2023-04-14T18:12:38.026Z,100399.80
2023-04-14T18:28:23.826Z,100401.90
2023-04-14T18:30:56.089Z,100404.89
2023-04-14T18:33:25.709Z,100402.24
2023-04-14T18:35:55.632Z,100402.94
2023-04-14T18:38:24.418Z,100405.36
2023-04-14T18:41:05.041Z,100409.34
2023-04-14T18:43:33.268Z,100406.52
2023-04-14T18:46:02.356Z,100405.74
2023-04-14T18:48:34.316Z,100404.16
2023-04-14T18:51:06.576Z,100404.02
2023-04-14T18:53:35.009Z,100401.88
2023-04-14T18:56:03.338Z,100401.64
2023-04-14T18:58:32.124Z,100399.17
2023-04-14T19:01:00.602Z,100396.65
2023-04-14T19:03:31.998Z,100393.97
2023-04-14T19:06:00.461Z,100390.33
2023-04-14T19:08:28.892Z,100392.70
2023-04-14T19:11:05.691Z,100391.89
2023-04-14T19:13:34.274Z,100391.52
2023-04-14T19:16:06.400Z,100386.27
2023-04-14T19:18:35.623Z,100388.12
2023-04-14T19:21:04.836Z,100387.84
2023-04-14T19:23:34.263Z,100388.96
2023-04-14T19:26:03.231Z,100390.39
2023-04-14T19:28:39.974Z,100392.02
2023-04-14T19:31:08.530Z,100391.50
2023-04-14T19:33:36.660Z,100392.53
2023-04-14T19:36:14.924Z,100390.91
2023-04-14T19:38:44.289Z,100391.31
2023-04-14T19:41:12.500Z,100396.29
2023-04-14T19:43:42.718Z,100398.10
2023-04-14T19:46:13.183Z,100398.40
2023-04-14T19:48:42.668Z,100392.20
2023-04-14T19:51:11.502Z,100395.86
2023-04-14T19:53:39.986Z,100394.52
2023-04-14T19:56:08.827Z,100391.13
2023-04-14T19:58:37.155Z,100393.52
2023-04-14T20:01:06.123Z,100397.06
2023-04-14T20:03:36.653Z,100398.40
2023-04-14T20:06:05.057Z,100400.92
2023-04-14T20:08:34.690Z,100398.97
2023-04-14T20:11:04.903Z,100400.45
2023-04-14T20:13:35.676Z,100404.73
2023-04-14T20:16:10.483Z,100407.56
2023-04-14T20:18:58.499Z,100409.20
2023-04-14T20:21:27.286Z,100411.50
2023-04-14T20:23:55.569Z,100414.95
2023-04-14T20:26:23.640Z,100423.70
2023-04-14T20:28:51.651Z,100425.33
2023-04-14T20:31:19.794Z,100428.84
2023-04-14T20:33:51.190Z,100433.88
2023-04-14T20:36:19.407Z,100436.35
2023-04-14T20:38:47.450Z,100439.11
2023-04-14T20:41:20.732Z,100441.55
2023-04-14T20:43:49.227Z,100440.82
2023-04-14T20:46:17.384Z,100440.95
2023-04-14T20:48:49.129Z,100448.52
2023-04-14T20:51:18.572Z,100451.84
2023-04-14T20:53:46.730Z,100458.84
2023-04-14T20:56:20.063Z,100462.37
2023-04-14T20:58:49.317Z,100469.55
2023-04-14T21:01:17.505Z,100476.70
2023-04-14T21:03:46.969Z,100480.49
2023-04-14T21:06:16.219Z,100483.20
2023-04-14T21:08:44.241Z,100487.86
2023-04-14T21:11:16.879Z,100492.95
2023-04-14T21:15:29.925Z,100496.58
2023-04-14T21:16:37.292Z,100501.15
2023-04-14T21:19:06.481Z,100503.88
2023-04-14T21:21:43.786Z,100510.11
2023-04-14T21:24:12.609Z,100513.97
2023-04-14T21:26:40.602Z,100516.77
2023-04-14T21:29:14.503Z,100517.48
2023-04-14T21:31:42.806Z,100522.57
2023-04-14T21:34:10.925Z,100520.66
2023-04-14T21:36:39.793Z,100524.89
2023-04-14T21:39:08.475Z,100530.98
2023-04-14T21:41:36.595Z,100536.59
2023-04-14T21:44:06.022Z,100543.32
2023-04-14T21:46:34.384Z,100548.05
2023-04-14T21:49:03.785Z,100554.41
2023-04-14T21:51:32.298Z,100555.77
2023-04-14T21:54:01.907Z,100559.03
2023-04-14T21:56:31.453Z,100562.20
2023-04-14T21:58:59.564Z,100564.61
2023-04-14T22:01:29.980Z,100572.20
2023-04-14T22:04:00.491Z,100574.21
2023-04-14T22:06:29.580Z,100574.55
2023-04-14T22:09:10.234Z,100576.80
2023-04-14T22:11:38.866Z,100582.35
2023-04-14T22:14:07.206Z,100582.73
2023-04-14T22:16:37.858Z,100584.13
2023-04-14T22:19:09.231Z,100585.14
2023-04-14T22:21:37.883Z,100583.09
2023-04-14T22:24:06.399Z,100583.59
2023-04-14T22:26:35.483Z,100585.03
2023-04-14T22:29:04.412Z,100585.59
2023-04-14T22:31:32.993Z,100592.64
2023-04-14T22:34:02.620Z,100591.71
2023-04-14T22:36:30.910Z,100590.09
2023-04-14T22:38:59.562Z,100589.88
2023-04-14T22:41:27.937Z,100590.30
2023-04-14T22:43:56.487Z,100587.35
2023-04-14T22:46:26.520Z,100588.74
2023-04-14T22:48:56.564Z,100587.99
2023-04-14T22:51:24.846Z,100587.55
2023-04-14T22:53:54.097Z,100586.98
2023-04-14T22:56:23.372Z,100589.66
2023-04-14T22:58:51.527Z,100586.73
2023-04-14T23:01:24.556Z,100582.98
2023-04-14T23:03:55.941Z,100583.26
2023-04-14T23:06:24.255Z,100582.95
2023-04-14T23:08:54.367Z,100582.77
2023-04-14T23:11:23.225Z,100583.79
2023-04-14T23:13:51.491Z,100583.57
2023-04-14T23:16:22.475Z,100580.97
2023-04-14T23:18:54.077Z,100579.52
2023-04-14T23:21:22.726Z,100578.45
2023-04-14T23:23:51.281Z,100574.73
2023-04-14T23:26:27.544Z,100575.87
2023-04-14T23:28:57.128Z,100565.80
2023-04-14T23:31:25.174Z,100556.80
2023-04-14T23:33:53.301Z,100553.77
2023-04-14T23:36:22.579Z,100555.77
2023-04-14T23:38:50.574Z,100563.48
2023-04-14T23:41:21.909Z,100563.48
2023-04-14T23:43:50.768Z,100567.23
2023-04-14T23:46:19.191Z,100571.66
2023-04-14T23:48:54.437Z,100572.76
2023-04-14T23:51:23.792Z,100573.71
2023-04-14T23:53:52.130Z,100572.71
2023-04-14T23:56:24.302Z,100570.86
2023-04-14T23:58:53.234Z,100571.61
